sensor_id;sensor_type;location;lat;lon;timestamp;P1;durP1;ratioP1;P2;durP2;ratioP2
23714;SDS011;12036;50.858;4.472;2022-07-15T00:01:36;10.43;;;3.10;;
23714;SDS011;12036;50.858;4.472;2022-07-15T00:04:02;6.07;;;2.15;;
23714;SDS011;12036;50.858;4.472;2022-07-15T00:06:27;4.95;;;2.20;;
23714;SDS011;12036;50.858;4.472;2022-07-15T00:08:53;6.90;;;2.05;;
23714;SDS011;12036;50.858;4.472;2022-07-15T00:11:20;11.75;;;2.50;;
23714;SDS011;12036;50.858;4.472;2022-07-15T00:13:46;3.80;;;2.20;;
23714;SDS011;12036;50.858;4.472;2022-07-15T00:16:11;9.85;;;2.95;;
23714;SDS011;12036;50.858;4.472;2022-07-15T00:18:39;7.93;;;2.35;;
23714;SDS011;12036;50.858;4.472;2022-07-15T00:21:05;8.90;;;2.70;;
23714;SDS011;12036;50.858;4.472;2022-07-15T00:23:31;10.77;;;1.90;;
23714;SDS011;12036;50.858;4.472;2022-07-15T00:25:57;10.65;;;2.45;;
23714;SDS011;12036;50.858;4.472;2022-07-15T00:28:23;3.88;;;2.10;;
23714;SDS011;12036;50.858;4.472;2022-07-15T00:30:49;6.43;;;2.50;;
23714;SDS011;12036;50.858;4.472;2022-07-15T00:33:15;6.80;;;2.22;;
23714;SDS011;12036;50.858;4.472;2022-07-15T00:35:41;8.07;;;2.42;;
23714;SDS011;12036;50.858;4.472;2022-07-15T00:38:07;5.35;;;2.25;;
23714;SDS011;12036;50.858;4.472;2022-07-15T00:40:43;8.52;;;2.45;;
23714;SDS011;12036;50.858;4.472;2022-07-15T00:43:11;7.57;;;2.55;;
23714;SDS011;12036;50.858;4.472;2022-07-15T00:45:37;8.23;;;2.55;;
23714;SDS011;12036;50.858;4.472;2022-07-15T00:48:03;4.97;;;2.35;;
23714;SDS011;12036;50.858;4.472;2022-07-15T00:50:30;9.68;;;2.30;;
23714;SDS011;12036;50.858;4.472;2022-07-15T00:55:25;7.47;;;2.50;;
23714;SDS011;12036;50.858;4.472;2022-07-15T00:57:55;8.25;;;2.60;;
23714;SDS011;12036;50.858;4.472;2022-07-15T01:00:25;6.82;;;2.20;;
23714;SDS011;12036;50.858;4.472;2022-07-15T01:02:50;6.28;;;2.30;;
23714;SDS011;12036;50.858;4.472;2022-07-15T01:05:19;4.93;;;2.65;;
23714;SDS011;12036;50.858;4.472;2022-07-15T01:07:46;6.57;;;2.30;;
23714;SDS011;12036;50.858;4.472;2022-07-15T01:10:12;6.25;;;2.30;;
23714;SDS011;12036;50.858;4.472;2022-07-15T01:12:37;6.38;;;2.20;;
23714;SDS011;12036;50.858;4.472;2022-07-15T01:15:07;6.60;;;2.22;;
23714;SDS011;12036;50.858;4.472;2022-07-15T01:17:34;7.35;;;2.78;;
23714;SDS011;12036;50.858;4.472;2022-07-15T01:20:00;11.30;;;2.42;;
23714;SDS011;12036;50.858;4.472;2022-07-15T01:22:26;6.72;;;2.60;;
23714;SDS011;12036;50.858;4.472;2022-07-15T01:24:51;6.05;;;2.38;;
23714;SDS011;12036;50.858;4.472;2022-07-15T01:27:17;6.93;;;2.47;;
23714;SDS011;12036;50.858;4.472;2022-07-15T01:29:43;7.72;;;2.50;;
23714;SDS011;12036;50.858;4.472;2022-07-15T01:32:09;5.30;;;2.53;;
23714;SDS011;12036;50.858;4.472;2022-07-15T01:34:34;6.20;;;2.47;;
23714;SDS011;12036;50.858;4.472;2022-07-15T01:37:01;4.80;;;2.30;;
23714;SDS011;12036;50.858;4.472;2022-07-15T01:39:27;12.25;;;2.65;;
23714;SDS011;12036;50.858;4.472;2022-07-15T01:41:52;7.28;;;2.22;;
23714;SDS011;12036;50.858;4.472;2022-07-15T01:44:18;8.48;;;2.60;;
23714;SDS011;12036;50.858;4.472;2022-07-15T01:46:44;11.40;;;2.72;;
23714;SDS011;12036;50.858;4.472;2022-07-15T01:49:09;5.70;;;2.30;;
23714;SDS011;12036;50.858;4.472;2022-07-15T01:51:48;9.95;;;2.60;;
23714;SDS011;12036;50.858;4.472;2022-07-15T01:54:17;8.63;;;2.97;;
23714;SDS011;12036;50.858;4.472;2022-07-15T01:56:43;7.88;;;2.30;;
23714;SDS011;12036;50.858;4.472;2022-07-15T01:59:09;4.70;;;2.30;;
23714;SDS011;12036;50.858;4.472;2022-07-15T02:01:34;3.05;;;2.45;;
23714;SDS011;12036;50.858;4.472;2022-07-15T02:04:00;8.02;;;2.30;;
23714;SDS011;12036;50.858;4.472;2022-07-15T02:06:27;8.55;;;2.83;;
23714;SDS011;12036;50.858;4.472;2022-07-15T02:08:52;8.88;;;3.30;;
23714;SDS011;12036;50.858;4.472;2022-07-15T02:11:18;4.57;;;2.58;;
23714;SDS011;12036;50.858;4.472;2022-07-15T02:13:44;6.25;;;3.10;;
23714;SDS011;12036;50.858;4.472;2022-07-15T02:16:09;7.45;;;2.95;;
23714;SDS011;12036;50.858;4.472;2022-07-15T02:18:35;6.00;;;2.80;;
23714;SDS011;12036;50.858;4.472;2022-07-15T02:21:01;9.50;;;2.85;;
23714;SDS011;12036;50.858;4.472;2022-07-15T02:23:27;8.10;;;2.92;;
23714;SDS011;12036;50.858;4.472;2022-07-15T02:25:54;8.90;;;2.95;;
23714;SDS011;12036;50.858;4.472;2022-07-15T02:28:19;7.45;;;2.97;;
23714;SDS011;12036;50.858;4.472;2022-07-15T02:30:45;8.60;;;3.05;;
23714;SDS011;12036;50.858;4.472;2022-07-15T02:33:11;4.43;;;2.58;;
23714;SDS011;12036;50.858;4.472;2022-07-15T02:35:38;6.90;;;2.78;;
23714;SDS011;12036;50.858;4.472;2022-07-15T02:38:05;7.78;;;3.05;;
23714;SDS011;12036;50.858;4.472;2022-07-15T02:40:31;8.27;;;3.70;;
23714;SDS011;12036;50.858;4.472;2022-07-15T02:42:58;7.18;;;3.00;;
23714;SDS011;12036;50.858;4.472;2022-07-15T02:45:26;7.60;;;2.65;;
23714;SDS011;12036;50.858;4.472;2022-07-15T02:47:53;9.63;;;3.35;;
23714;SDS011;12036;50.858;4.472;2022-07-15T02:50:19;12.15;;;3.40;;
23714;SDS011;12036;50.858;4.472;2022-07-15T02:52:45;8.45;;;3.05;;
23714;SDS011;12036;50.858;4.472;2022-07-15T02:55:11;9.23;;;3.08;;
23714;SDS011;12036;50.858;4.472;2022-07-15T02:57:38;7.90;;;3.40;;
23714;SDS011;12036;50.858;4.472;2022-07-15T03:00:05;10.85;;;3.55;;
23714;SDS011;12036;50.858;4.472;2022-07-15T03:02:33;6.47;;;3.15;;
23714;SDS011;12036;50.858;4.472;2022-07-15T03:04:58;7.22;;;3.45;;
23714;SDS011;12036;50.858;4.472;2022-07-15T03:07:25;7.97;;;3.58;;
23714;SDS011;12036;50.858;4.472;2022-07-15T03:09:51;11.48;;;3.80;;
23714;SDS011;12036;50.858;4.472;2022-07-15T03:12:16;10.30;;;3.60;;
23714;SDS011;12036;50.858;4.472;2022-07-15T03:14:42;10.60;;;3.75;;
23714;SDS011;12036;50.858;4.472;2022-07-15T03:17:08;9.13;;;3.83;;
23714;SDS011;12036;50.858;4.472;2022-07-15T03:19:33;11.25;;;3.50;;
23714;SDS011;12036;50.858;4.472;2022-07-15T03:21:59;5.43;;;2.83;;
23714;SDS011;12036;50.858;4.472;2022-07-15T03:24:25;5.20;;;3.60;;
23714;SDS011;12036;50.858;4.472;2022-07-15T03:26:50;6.97;;;3.13;;
23714;SDS011;12036;50.858;4.472;2022-07-15T03:29:16;7.35;;;3.25;;
23714;SDS011;12036;50.858;4.472;2022-07-15T03:31:42;10.77;;;3.63;;
23714;SDS011;12036;50.858;4.472;2022-07-15T03:34:08;7.10;;;3.47;;
23714;SDS011;12036;50.858;4.472;2022-07-15T03:36:38;5.82;;;3.47;;
23714;SDS011;12036;50.858;4.472;2022-07-15T03:39:05;9.02;;;3.28;;
23714;SDS011;12036;50.858;4.472;2022-07-15T03:41:31;9.35;;;3.85;;
23714;SDS011;12036;50.858;4.472;2022-07-15T03:43:58;4.82;;;3.17;;
23714;SDS011;12036;50.858;4.472;2022-07-15T03:46:24;7.97;;;3.72;;
23714;SDS011;12036;50.858;4.472;2022-07-15T03:48:49;11.40;;;3.40;;
23714;SDS011;12036;50.858;4.472;2022-07-15T03:51:15;7.65;;;3.30;;
23714;SDS011;12036;50.858;4.472;2022-07-15T03:53:41;7.63;;;3.08;;
23714;SDS011;12036;50.858;4.472;2022-07-15T03:56:07;8.43;;;3.13;;
23714;SDS011;12036;50.858;4.472;2022-07-15T03:58:32;7.45;;;3.35;;
23714;SDS011;12036;50.858;4.472;2022-07-15T04:00:58;4.68;;;3.05;;
23714;SDS011;12036;50.858;4.472;2022-07-15T04:03:24;6.78;;;3.55;;
23714;SDS011;12036;50.858;4.472;2022-07-15T04:05:50;6.65;;;3.20;;
23714;SDS011;12036;50.858;4.472;2022-07-15T04:08:16;13.35;;;3.40;;
23714;SDS011;12036;50.858;4.472;2022-07-15T04:10:41;10.57;;;3.58;;
23714;SDS011;12036;50.858;4.472;2022-07-15T04:13:07;4.35;;;2.95;;
23714;SDS011;12036;50.858;4.472;2022-07-15T04:15:33;5.72;;;3.05;;
23714;SDS011;12036;50.858;4.472;2022-07-15T04:17:58;6.35;;;3.22;;
23714;SDS011;12036;50.858;4.472;2022-07-15T04:20:24;10.65;;;3.47;;
23714;SDS011;12036;50.858;4.472;2022-07-15T04:22:50;8.00;;;3.15;;
23714;SDS011;12036;50.858;4.472;2022-07-15T04:25:18;9.88;;;3.80;;
23714;SDS011;12036;50.858;4.472;2022-07-15T04:27:46;11.15;;;3.63;;
23714;SDS011;12036;50.858;4.472;2022-07-15T04:30:13;8.73;;;3.50;;
23714;SDS011;12036;50.858;4.472;2022-07-15T04:32:40;9.32;;;3.33;;
23714;SDS011;12036;50.858;4.472;2022-07-15T04:35:07;6.55;;;2.88;;
23714;SDS011;12036;50.858;4.472;2022-07-15T04:37:33;4.35;;;2.88;;
23714;SDS011;12036;50.858;4.472;2022-07-15T04:39:58;6.53;;;3.03;;
23714;SDS011;12036;50.858;4.472;2022-07-15T04:42:24;7.88;;;3.08;;
23714;SDS011;12036;50.858;4.472;2022-07-15T04:44:50;8.52;;;3.42;;
23714;SDS011;12036;50.858;4.472;2022-07-15T04:47:16;7.10;;;2.88;;
23714;SDS011;12036;50.858;4.472;2022-07-15T04:49:42;7.18;;;3.20;;
23714;SDS011;12036;50.858;4.472;2022-07-15T04:52:27;5.75;;;3.03;;
23714;SDS011;12036;50.858;4.472;2022-07-15T04:54:55;6.13;;;3.10;;
23714;SDS011;12036;50.858;4.472;2022-07-15T04:57:21;6.75;;;3.33;;
23714;SDS011;12036;50.858;4.472;2022-07-15T04:59:47;9.60;;;3.20;;
23714;SDS011;12036;50.858;4.472;2022-07-15T05:02:13;10.77;;;3.25;;
23714;SDS011;12036;50.858;4.472;2022-07-15T05:04:39;8.50;;;3.55;;
23714;SDS011;12036;50.858;4.472;2022-07-15T05:07:05;7.43;;;2.92;;
23714;SDS011;12036;50.858;4.472;2022-07-15T05:09:31;12.27;;;3.50;;
23714;SDS011;12036;50.858;4.472;2022-07-15T05:11:57;9.02;;;3.05;;
23714;SDS011;12036;50.858;4.472;2022-07-15T05:14:23;10.18;;;3.20;;
23714;SDS011;12036;50.858;4.472;2022-07-15T05:16:49;7.47;;;3.17;;
23714;SDS011;12036;50.858;4.472;2022-07-15T05:19:15;10.95;;;3.50;;
23714;SDS011;12036;50.858;4.472;2022-07-15T05:21:40;8.27;;;3.30;;
23714;SDS011;12036;50.858;4.472;2022-07-15T05:24:06;12.77;;;3.13;;
23714;SDS011;12036;50.858;4.472;2022-07-15T05:26:32;7.93;;;2.90;;
23714;SDS011;12036;50.858;4.472;2022-07-15T05:28:57;5.53;;;2.85;;
23714;SDS011;12036;50.858;4.472;2022-07-15T05:31:23;6.25;;;3.03;;
23714;SDS011;12036;50.858;4.472;2022-07-15T05:33:48;9.18;;;3.13;;
23714;SDS011;12036;50.858;4.472;2022-07-15T05:36:14;8.52;;;3.05;;
23714;SDS011;12036;50.858;4.472;2022-07-15T05:38:43;8.95;;;2.70;;
23714;SDS011;12036;50.858;4.472;2022-07-15T05:41:09;9.60;;;2.63;;
23714;SDS011;12036;50.858;4.472;2022-07-15T05:43:35;12.82;;;3.63;;
23714;SDS011;12036;50.858;4.472;2022-07-15T05:46:02;7.13;;;2.38;;
23714;SDS011;12036;50.858;4.472;2022-07-15T05:48:28;9.15;;;2.33;;
23714;SDS011;12036;50.858;4.472;2022-07-15T05:50:53;13.07;;;2.30;;
23714;SDS011;12036;50.858;4.472;2022-07-15T05:53:19;8.07;;;1.83;;
23714;SDS011;12036;50.858;4.472;2022-07-15T05:55:45;9.43;;;1.90;;
23714;SDS011;12036;50.858;4.472;2022-07-15T05:58:11;10.27;;;2.05;;
23714;SDS011;12036;50.858;4.472;2022-07-15T06:00:37;4.78;;;2.00;;
23714;SDS011;12036;50.858;4.472;2022-07-15T06:03:03;6.13;;;1.65;;
23714;SDS011;12036;50.858;4.472;2022-07-15T06:05:31;6.22;;;1.70;;
23714;SDS011;12036;50.858;4.472;2022-07-15T06:07:57;8.80;;;1.42;;
23714;SDS011;12036;50.858;4.472;2022-07-15T06:10:23;6.20;;;2.20;;
23714;SDS011;12036;50.858;4.472;2022-07-15T06:12:49;3.72;;;1.67;;
23714;SDS011;12036;50.858;4.472;2022-07-15T06:15:17;18.25;;;2.20;;
23714;SDS011;12036;50.858;4.472;2022-07-15T06:17:44;9.50;;;1.85;;
23714;SDS011;12036;50.858;4.472;2022-07-15T06:20:10;7.15;;;1.75;;
23714;SDS011;12036;50.858;4.472;2022-07-15T06:22:36;5.53;;;1.70;;
23714;SDS011;12036;50.858;4.472;2022-07-15T06:25:02;15.13;;;1.95;;
23714;SDS011;12036;50.858;4.472;2022-07-15T06:27:29;7.75;;;1.80;;
23714;SDS011;12036;50.858;4.472;2022-07-15T06:29:56;4.00;;;1.10;;
23714;SDS011;12036;50.858;4.472;2022-07-15T06:32:23;11.57;;;1.75;;
23714;SDS011;12036;50.858;4.472;2022-07-15T06:34:49;4.82;;;1.30;;
23714;SDS011;12036;50.858;4.472;2022-07-15T06:37:15;3.15;;;1.33;;
23714;SDS011;12036;50.858;4.472;2022-07-15T06:39:40;6.18;;;1.30;;
23714;SDS011;12036;50.858;4.472;2022-07-15T06:42:06;6.38;;;1.35;;
23714;SDS011;12036;50.858;4.472;2022-07-15T06:44:31;7.72;;;1.40;;
23714;SDS011;12036;50.858;4.472;2022-07-15T06:46:57;5.18;;;1.23;;
23714;SDS011;12036;50.858;4.472;2022-07-15T06:49:23;4.22;;;1.05;;
23714;SDS011;12036;50.858;4.472;2022-07-15T06:51:49;5.45;;;1.10;;
23714;SDS011;12036;50.858;4.472;2022-07-15T06:54:16;7.47;;;1.50;;
23714;SDS011;12036;50.858;4.472;2022-07-15T06:56:43;6.50;;;1.10;;
23714;SDS011;12036;50.858;4.472;2022-07-15T06:59:09;3.65;;;0.75;;
23714;SDS011;12036;50.858;4.472;2022-07-15T07:01:35;4.30;;;1.00;;
23714;SDS011;12036;50.858;4.472;2022-07-15T07:04:02;3.97;;;0.75;;
23714;SDS011;12036;50.858;4.472;2022-07-15T07:06:28;4.38;;;0.90;;
23714;SDS011;12036;50.858;4.472;2022-07-15T07:08:53;5.38;;;0.90;;
23714;SDS011;12036;50.858;4.472;2022-07-15T07:11:19;5.60;;;1.10;;
23714;SDS011;12036;50.858;4.472;2022-07-15T07:13:46;3.10;;;1.20;;
23714;SDS011;12036;50.858;4.472;2022-07-15T07:16:12;4.82;;;1.45;;
23714;SDS011;12036;50.858;4.472;2022-07-15T07:18:38;9.25;;;1.90;;
23714;SDS011;12036;50.858;4.472;2022-07-15T07:21:03;4.82;;;1.50;;
23714;SDS011;12036;50.858;4.472;2022-07-15T07:23:29;6.90;;;1.23;;
23714;SDS011;12036;50.858;4.472;2022-07-15T07:25:56;6.32;;;1.83;;
23714;SDS011;12036;50.858;4.472;2022-07-15T07:28:22;6.90;;;2.03;;
23714;SDS011;12036;50.858;4.472;2022-07-15T07:30:48;6.65;;;1.92;;
23714;SDS011;12036;50.858;4.472;2022-07-15T07:33:16;10.52;;;2.13;;
23714;SDS011;12036;50.858;4.472;2022-07-15T07:35:42;6.22;;;2.58;;
23714;SDS011;12036;50.858;4.472;2022-07-15T07:38:08;6.05;;;2.38;;
23714;SDS011;12036;50.858;4.472;2022-07-15T07:40:34;5.97;;;2.90;;
23714;SDS011;12036;50.858;4.472;2022-07-15T07:43:00;4.32;;;2.30;;
23714;SDS011;12036;50.858;4.472;2022-07-15T07:45:25;8.70;;;3.00;;
23714;SDS011;12036;50.858;4.472;2022-07-15T07:47:53;6.28;;;2.90;;
23714;SDS011;12036;50.858;4.472;2022-07-15T07:50:20;5.18;;;2.55;;
23714;SDS011;12036;50.858;4.472;2022-07-15T07:52:45;7.57;;;2.50;;
23714;SDS011;12036;50.858;4.472;2022-07-15T07:55:11;6.18;;;2.25;;
23714;SDS011;12036;50.858;4.472;2022-07-15T07:57:50;7.28;;;2.00;;
23714;SDS011;12036;50.858;4.472;2022-07-15T08:00:21;7.15;;;2.30;;
23714;SDS011;12036;50.858;4.472;2022-07-15T08:02:48;5.15;;;2.03;;
23714;SDS011;12036;50.858;4.472;2022-07-15T08:05:14;6.93;;;1.80;;
23714;SDS011;12036;50.858;4.472;2022-07-15T08:07:40;3.60;;;2.10;;
23714;SDS011;12036;50.858;4.472;2022-07-15T08:10:07;4.60;;;1.40;;
23714;SDS011;12036;50.858;4.472;2022-07-15T08:12:34;7.03;;;1.55;;
23714;SDS011;12036;50.858;4.472;2022-07-15T08:15:01;5.18;;;1.67;;
23714;SDS011;12036;50.858;4.472;2022-07-15T08:17:27;5.45;;;1.92;;
23714;SDS011;12036;50.858;4.472;2022-07-15T08:19:53;5.85;;;1.70;;
23714;SDS011;12036;50.858;4.472;2022-07-15T08:22:19;7.20;;;1.73;;
23714;SDS011;12036;50.858;4.472;2022-07-15T08:24:45;4.07;;;1.70;;
23714;SDS011;12036;50.858;4.472;2022-07-15T08:27:11;7.72;;;1.85;;
23714;SDS011;12036;50.858;4.472;2022-07-15T08:29:36;3.63;;;2.05;;
23714;SDS011;12036;50.858;4.472;2022-07-15T08:32:03;4.22;;;1.63;;
23714;SDS011;12036;50.858;4.472;2022-07-15T08:34:29;5.85;;;1.75;;
23714;SDS011;12036;50.858;4.472;2022-07-15T08:36:55;3.65;;;1.52;;
23714;SDS011;12036;50.858;4.472;2022-07-15T08:39:21;5.57;;;1.70;;
23714;SDS011;12036;50.858;4.472;2022-07-15T08:41:47;5.93;;;1.60;;
23714;SDS011;12036;50.858;4.472;2022-07-15T08:44:13;5.03;;;1.30;;
23714;SDS011;12036;50.858;4.472;2022-07-15T08:46:40;3.95;;;1.60;;
23714;SDS011;12036;50.858;4.472;2022-07-15T08:49:12;6.22;;;1.48;;
23714;SDS011;12036;50.858;4.472;2022-07-15T08:51:41;4.00;;;1.42;;
23714;SDS011;12036;50.858;4.472;2022-07-15T08:54:08;2.63;;;1.10;;
23714;SDS011;12036;50.858;4.472;2022-07-15T08:56:35;1.55;;;0.90;;
23714;SDS011;12036;50.858;4.472;2022-07-15T08:59:02;5.93;;;1.25;;
23714;SDS011;12036;50.858;4.472;2022-07-15T09:01:29;4.80;;;1.30;;
23714;SDS011;12036;50.858;4.472;2022-07-15T09:03:55;4.70;;;1.00;;
23714;SDS011;12036;50.858;4.472;2022-07-15T09:12:06;6.00;;;1.10;;
23714;SDS011;12036;50.858;4.472;2022-07-15T09:14:33;3.60;;;1.00;;
23714;SDS011;12036;50.858;4.472;2022-07-15T09:22:20;4.70;;;1.20;;
23714;SDS011;12036;50.858;4.472;2022-07-15T09:24:46;2.53;;;1.10;;
23714;SDS011;12036;50.858;4.472;2022-07-15T09:27:28;3.63;;;1.02;;
23714;SDS011;12036;50.858;4.472;2022-07-15T09:29:57;3.30;;;0.80;;
23714;SDS011;12036;50.858;4.472;2022-07-15T09:33:00;3.03;;;1.00;;
23714;SDS011;12036;50.858;4.472;2022-07-15T09:35:47;2.58;;;0.88;;
23714;SDS011;12036;50.858;4.472;2022-07-15T09:38:34;3.45;;;0.95;;
23714;SDS011;12036;50.858;4.472;2022-07-15T09:41:06;5.35;;;1.08;;
23714;SDS011;12036;50.858;4.472;2022-07-15T09:43:59;3.03;;;1.25;;
23714;SDS011;12036;50.858;4.472;2022-07-15T09:46:23;3.33;;;1.08;;
23714;SDS011;12036;50.858;4.472;2022-07-15T09:48:51;2.80;;;0.82;;
23714;SDS011;12036;50.858;4.472;2022-07-15T09:51:17;5.28;;;1.10;;
23714;SDS011;12036;50.858;4.472;2022-07-15T09:53:44;3.08;;;0.90;;
23714;SDS011;12036;50.858;4.472;2022-07-15T09:56:11;5.28;;;1.08;;
23714;SDS011;12036;50.858;4.472;2022-07-15T09:58:42;2.92;;;1.00;;
23714;SDS011;12036;50.858;4.472;2022-07-15T10:01:09;4.03;;;1.08;;
23714;SDS011;12036;50.858;4.472;2022-07-15T10:03:37;2.80;;;0.98;;
23714;SDS011;12036;50.858;4.472;2022-07-15T10:06:04;2.80;;;1.05;;
23714;SDS011;12036;50.858;4.472;2022-07-15T10:08:31;5.22;;;1.00;;
23714;SDS011;12036;50.858;4.472;2022-07-15T10:10:59;6.70;;;0.98;;
23714;SDS011;12036;50.858;4.472;2022-07-15T10:19:09;6.88;;;1.10;;
23714;SDS011;12036;50.858;4.472;2022-07-15T10:29:43;2.00;;;0.75;;
23714;SDS011;12036;50.858;4.472;2022-07-15T10:32:09;2.40;;;0.70;;
23714;SDS011;12036;50.858;4.472;2022-07-15T10:34:36;2.63;;;0.85;;
23714;SDS011;12036;50.858;4.472;2022-07-15T10:37:07;3.50;;;0.82;;
23714;SDS011;12036;50.858;4.472;2022-07-15T10:39:49;3.22;;;0.95;;
23714;SDS011;12036;50.858;4.472;2022-07-15T10:45:26;5.65;;;0.95;;
23714;SDS011;12036;50.858;4.472;2022-07-15T10:50:50;1.70;;;0.88;;
23714;SDS011;12036;50.858;4.472;2022-07-15T10:53:16;1.85;;;0.82;;
23714;SDS011;12036;50.858;4.472;2022-07-15T10:55:44;2.83;;;0.98;;
23714;SDS011;12036;50.858;4.472;2022-07-15T10:58:11;1.95;;;0.73;;
23714;SDS011;12036;50.858;4.472;2022-07-15T11:00:38;2.53;;;1.10;;
23714;SDS011;12036;50.858;4.472;2022-07-15T11:03:13;2.33;;;0.90;;
23714;SDS011;12036;50.858;4.472;2022-07-15T11:06:00;1.65;;;0.80;;
23714;SDS011;12036;50.858;4.472;2022-07-15T11:16:09;5.07;;;1.30;;
23714;SDS011;12036;50.858;4.472;2022-07-15T11:18:49;4.88;;;1.40;;
23714;SDS011;12036;50.858;4.472;2022-07-15T11:21:21;8.57;;;1.90;;
23714;SDS011;12036;50.858;4.472;2022-07-15T11:23:48;5.38;;;1.10;;
23714;SDS011;12036;50.858;4.472;2022-07-15T11:26:16;3.22;;;0.85;;
23714;SDS011;12036;50.858;4.472;2022-07-15T11:28:55;1.45;;;0.88;;
23714;SDS011;12036;50.858;4.472;2022-07-15T11:31:22;3.93;;;1.50;;
23714;SDS011;12036;50.858;4.472;2022-07-15T11:33:51;1.45;;;0.90;;
23714;SDS011;12036;50.858;4.472;2022-07-15T11:36:18;2.90;;;0.95;;
23714;SDS011;12036;50.858;4.472;2022-07-15T11:38:47;2.35;;;0.90;;
23714;SDS011;12036;50.858;4.472;2022-07-15T11:41:12;1.50;;;0.95;;
23714;SDS011;12036;50.858;4.472;2022-07-15T11:44:07;4.18;;;1.00;;
23714;SDS011;12036;50.858;4.472;2022-07-15T11:46:52;2.55;;;0.93;;
23714;SDS011;12036;50.858;4.472;2022-07-15T11:49:28;3.85;;;0.90;;
23714;SDS011;12036;50.858;4.472;2022-07-15T11:51:55;3.83;;;1.00;;
23714;SDS011;12036;50.858;4.472;2022-07-15T11:54:22;4.95;;;0.82;;
23714;SDS011;12036;50.858;4.472;2022-07-15T11:56:54;2.20;;;1.08;;
23714;SDS011;12036;50.858;4.472;2022-07-15T11:59:21;5.43;;;0.90;;
23714;SDS011;12036;50.858;4.472;2022-07-15T12:01:47;2.17;;;0.80;;
23714;SDS011;12036;50.858;4.472;2022-07-15T12:04:13;2.38;;;0.85;;
23714;SDS011;12036;50.858;4.472;2022-07-15T12:06:39;3.92;;;0.65;;
23714;SDS011;12036;50.858;4.472;2022-07-15T12:09:05;3.33;;;0.90;;
23714;SDS011;12036;50.858;4.472;2022-07-15T12:11:37;2.22;;;0.70;;
23714;SDS011;12036;50.858;4.472;2022-07-15T12:14:05;1.33;;;0.52;;
23714;SDS011;12036;50.858;4.472;2022-07-15T12:19:12;3.20;;;0.70;;
23714;SDS011;12036;50.858;4.472;2022-07-15T12:21:39;4.45;;;0.60;;
23714;SDS011;12036;50.858;4.472;2022-07-15T12:24:10;2.90;;;0.70;;
23714;SDS011;12036;50.858;4.472;2022-07-15T12:29:24;3.00;;;0.73;;
23714;SDS011;12036;50.858;4.472;2022-07-15T12:34:20;2.15;;;0.60;;
23714;SDS011;12036;50.858;4.472;2022-07-15T12:36:57;7.38;;;1.02;;
23714;SDS011;12036;50.858;4.472;2022-07-15T12:39:24;1.92;;;0.90;;
23714;SDS011;12036;50.858;4.472;2022-07-15T12:42:01;2.05;;;0.68;;
23714;SDS011;12036;50.858;4.472;2022-07-15T12:44:28;4.13;;;0.98;;
23714;SDS011;12036;50.858;4.472;2022-07-15T12:49:38;3.50;;;0.90;;
23714;SDS011;12036;50.858;4.472;2022-07-15T12:54:42;1.73;;;0.43;;
23714;SDS011;12036;50.858;4.472;2022-07-15T12:57:18;2.40;;;0.60;;
23714;SDS011;12036;50.858;4.472;2022-07-15T13:00:00;4.78;;;0.60;;
23714;SDS011;12036;50.858;4.472;2022-07-15T13:02:27;1.92;;;0.60;;
23714;SDS011;12036;50.858;4.472;2022-07-15T13:04:53;5.32;;;0.80;;
23714;SDS011;12036;50.858;4.472;2022-07-15T13:07:19;2.97;;;0.52;;
23714;SDS011;12036;50.858;4.472;2022-07-15T13:09:45;2.88;;;0.60;;
23714;SDS011;12036;50.858;4.472;2022-07-15T13:12:11;2.00;;;0.60;;
23714;SDS011;12036;50.858;4.472;2022-07-15T13:14:38;3.35;;;0.80;;
23714;SDS011;12036;50.858;4.472;2022-07-15T13:17:04;4.30;;;0.73;;
23714;SDS011;12036;50.858;4.472;2022-07-15T13:19:30;0.70;;;0.50;;
23714;SDS011;12036;50.858;4.472;2022-07-15T13:21:58;1.42;;;0.70;;
23714;SDS011;12036;50.858;4.472;2022-07-15T13:24:27;2.60;;;0.98;;
23714;SDS011;12036;50.858;4.472;2022-07-15T13:26:53;2.42;;;0.82;;
23714;SDS011;12036;50.858;4.472;2022-07-15T13:29:19;2.42;;;0.80;;
23714;SDS011;12036;50.858;4.472;2022-07-15T13:31:44;3.17;;;0.63;;
23714;SDS011;12036;50.858;4.472;2022-07-15T13:34:10;2.22;;;0.70;;
23714;SDS011;12036;50.858;4.472;2022-07-15T13:36:36;2.80;;;0.77;;
23714;SDS011;12036;50.858;4.472;2022-07-15T13:39:02;1.85;;;1.00;;
23714;SDS011;12036;50.858;4.472;2022-07-15T13:41:28;3.03;;;0.50;;
23714;SDS011;12036;50.858;4.472;2022-07-15T13:43:54;0.95;;;0.40;;
23714;SDS011;12036;50.858;4.472;2022-07-15T13:46:20;1.35;;;0.63;;
23714;SDS011;12036;50.858;4.472;2022-07-15T13:48:45;1.15;;;0.93;;
23714;SDS011;12036;50.858;4.472;2022-07-15T13:51:11;2.08;;;0.70;;
23714;SDS011;12036;50.858;4.472;2022-07-15T13:53:49;2.30;;;0.68;;
23714;SDS011;12036;50.858;4.472;2022-07-15T13:56:16;1.90;;;0.80;;
23714;SDS011;12036;50.858;4.472;2022-07-15T13:58:42;2.75;;;1.00;;
23714;SDS011;12036;50.858;4.472;2022-07-15T14:01:08;1.77;;;0.73;;
23714;SDS011;12036;50.858;4.472;2022-07-15T14:03:34;2.10;;;0.88;;
23714;SDS011;12036;50.858;4.472;2022-07-15T14:05:59;3.03;;;1.00;;
23714;SDS011;12036;50.858;4.472;2022-07-15T14:08:25;3.20;;;0.90;;
23714;SDS011;12036;50.858;4.472;2022-07-15T14:10:51;1.77;;;0.75;;
23714;SDS011;12036;50.858;4.472;2022-07-15T14:13:17;1.52;;;0.80;;
23714;SDS011;12036;50.858;4.472;2022-07-15T14:15:42;1.60;;;0.90;;
23714;SDS011;12036;50.858;4.472;2022-07-15T14:18:08;2.95;;;1.05;;
23714;SDS011;12036;50.858;4.472;2022-07-15T14:20:35;3.08;;;1.00;;
23714;SDS011;12036;50.858;4.472;2022-07-15T14:23:01;2.10;;;0.70;;
23714;SDS011;12036;50.858;4.472;2022-07-15T14:25:26;1.38;;;0.60;;
23714;SDS011;12036;50.858;4.472;2022-07-15T14:27:52;3.15;;;0.90;;
23714;SDS011;12036;50.858;4.472;2022-07-15T14:30:18;2.15;;;1.10;;
23714;SDS011;12036;50.858;4.472;2022-07-15T14:32:43;2.53;;;1.10;;
23714;SDS011;12036;50.858;4.472;2022-07-15T14:35:09;2.97;;;1.02;;
23714;SDS011;12036;50.858;4.472;2022-07-15T14:37:36;2.92;;;0.88;;
23714;SDS011;12036;50.858;4.472;2022-07-15T14:40:03;1.67;;;0.80;;
23714;SDS011;12036;50.858;4.472;2022-07-15T14:42:29;2.17;;;1.15;;
23714;SDS011;12036;50.858;4.472;2022-07-15T14:44:55;2.92;;;0.90;;
23714;SDS011;12036;50.858;4.472;2022-07-15T14:47:22;2.08;;;0.93;;
23714;SDS011;12036;50.858;4.472;2022-07-15T14:49:48;2.13;;;1.23;;
23714;SDS011;12036;50.858;4.472;2022-07-15T14:52:13;2.75;;;0.90;;
23714;SDS011;12036;50.858;4.472;2022-07-15T14:54:39;1.50;;;1.08;;
23714;SDS011;12036;50.858;4.472;2022-07-15T14:57:05;2.17;;;0.80;;
23714;SDS011;12036;50.858;4.472;2022-07-15T14:59:31;2.33;;;1.10;;
23714;SDS011;12036;50.858;4.472;2022-07-15T15:01:56;2.83;;;0.80;;
23714;SDS011;12036;50.858;4.472;2022-07-15T15:04:23;6.03;;;1.08;;
23714;SDS011;12036;50.858;4.472;2022-07-15T15:06:49;1.95;;;0.80;;
23714;SDS011;12036;50.858;4.472;2022-07-15T15:09:15;2.70;;;1.13;;
23714;SDS011;12036;50.858;4.472;2022-07-15T15:11:41;2.08;;;1.05;;
23714;SDS011;12036;50.858;4.472;2022-07-15T15:14:07;2.53;;;0.70;;
23714;SDS011;12036;50.858;4.472;2022-07-15T15:16:32;3.70;;;0.90;;
23714;SDS011;12036;50.858;4.472;2022-07-15T15:18:58;4.60;;;0.90;;
23714;SDS011;12036;50.858;4.472;2022-07-15T15:21:24;4.70;;;0.98;;
23714;SDS011;12036;50.858;4.472;2022-07-15T15:23:49;2.20;;;1.02;;
23714;SDS011;12036;50.858;4.472;2022-07-15T15:26:15;3.03;;;0.98;;
23714;SDS011;12036;50.858;4.472;2022-07-15T15:28:47;1.40;;;0.75;;
23714;SDS011;12036;50.858;4.472;2022-07-15T15:31:13;3.95;;;0.90;;
23714;SDS011;12036;50.858;4.472;2022-07-15T15:33:39;3.80;;;1.10;;
23714;SDS011;12036;50.858;4.472;2022-07-15T15:36:05;2.05;;;1.00;;
23714;SDS011;12036;50.858;4.472;2022-07-15T15:38:31;2.75;;;1.08;;
23714;SDS011;12036;50.858;4.472;2022-07-15T15:40:56;3.70;;;0.95;;